sensor_id;sensor_type;location;lat;lon;timestamp;P1;durP1;ratioP1;P2;durP2;ratioP2
28437;SDS011;15667;52.376;9.708;2023-02-26T00:00:56;4.95;;;2.58;;
28437;SDS011;15667;52.376;9.708;2023-02-26T00:03:22;7.25;;;2.10;;
28437;SDS011;15667;52.376;9.708;2023-02-26T00:05:48;6.32;;;2.03;;
28437;SDS011;15667;52.376;9.708;2023-02-26T00:08:14;6.93;;;2.30;;
28437;SDS011;15667;52.376;9.708;2023-02-26T00:10:39;6.57;;;2.47;;
28437;SDS011;15667;52.376;9.708;2023-02-26T00:13:05;5.53;;;2.00;;
28437;SDS011;15667;52.376;9.708;2023-02-26T00:15:31;3.17;;;1.95;;
28437;SDS011;15667;52.376;9.708;2023-02-26T00:17:58;7.30;;;2.10;;
28437;SDS011;15667;52.376;9.708;2023-02-26T00:20:29;8.13;;;2.22;;
28437;SDS011;15667;52.376;9.708;2023-02-26T00:22:55;3.97;;;1.75;;
28437;SDS011;15667;52.376;9.708;2023-02-26T00:25:21;6.55;;;2.33;;
28437;SDS011;15667;52.376;9.708;2023-02-26T00:27:47;6.85;;;2.33;;
28437;SDS011;15667;52.376;9.708;2023-02-26T00:30:13;6.25;;;2.30;;
28437;SDS011;15667;52.376;9.708;2023-02-26T00:32:39;6.70;;;2.60;;
28437;SDS011;15667;52.376;9.708;2023-02-26T00:35:06;4.90;;;2.45;;
28437;SDS011;15667;52.376;9.708;2023-02-26T00:37:54;3.10;;;2.00;;
28437;SDS011;15667;52.376;9.708;2023-02-26T00:43:15;6.90;;;1.98;;
28437;SDS011;15667;52.376;9.708;2023-02-26T00:45:44;4.95;;;2.25;;
28437;SDS011;15667;52.376;9.708;2023-02-26T00:50:58;5.80;;;2.47;;
28437;SDS011;15667;52.376;9.708;2023-02-26T00:53:39;7.22;;;2.63;;
28437;SDS011;15667;52.376;9.708;2023-02-26T00:56:13;3.72;;;1.85;;
28437;SDS011;15667;52.376;9.708;2023-02-26T00:58:39;6.18;;;2.30;;
28437;SDS011;15667;52.376;9.708;2023-02-26T01:01:04;4.13;;;2.20;;
28437;SDS011;15667;52.376;9.708;2023-02-26T01:03:30;6.68;;;2.25;;
28437;SDS011;15667;52.376;9.708;2023-02-26T01:05:57;4.70;;;2.13;;
28437;SDS011;15667;52.376;9.708;2023-02-26T01:08:25;5.53;;;1.75;;
28437;SDS011;15667;52.376;9.708;2023-02-26T01:10:56;4.93;;;2.23;;
28437;SDS011;15667;52.376;9.708;2023-02-26T01:13:21;6.82;;;2.35;;
28437;SDS011;15667;52.376;9.708;2023-02-26T01:15:49;7.35;;;2.17;;
28437;SDS011;15667;52.376;9.708;2023-02-26T01:18:21;6.70;;;2.75;;
28437;SDS011;15667;52.376;9.708;2023-02-26T01:21:14;6.35;;;2.38;;
28437;SDS011;15667;52.376;9.708;2023-02-26T01:23:46;6.47;;;2.33;;
28437;SDS011;15667;52.376;9.708;2023-02-26T01:26:20;8.00;;;2.15;;
28437;SDS011;15667;52.376;9.708;2023-02-26T01:28:49;3.30;;;1.85;;
28437;SDS011;15667;52.376;9.708;2023-02-26T01:31:25;3.78;;;2.00;;
28437;SDS011;15667;52.376;9.708;2023-02-26T01:34:14;5.50;;;1.88;;
28437;SDS011;15667;52.376;9.708;2023-02-26T01:40:02;4.20;;;2.28;;
28437;SDS011;15667;52.376;9.708;2023-02-26T01:42:37;4.22;;;1.73;;
28437;SDS011;15667;52.376;9.708;2023-02-26T01:45:17;4.97;;;2.13;;
28437;SDS011;15667;52.376;9.708;2023-02-26T01:50:32;5.45;;;2.00;;
28437;SDS011;15667;52.376;9.708;2023-02-26T01:55:54;7.53;;;2.47;;
28437;SDS011;15667;52.376;9.708;2023-02-26T01:58:29;3.38;;;2.20;;
28437;SDS011;15667;52.376;9.708;2023-02-26T02:00:58;6.35;;;1.80;;
28437;SDS011;15667;52.376;9.708;2023-02-26T02:03:25;3.60;;;2.10;;
28437;SDS011;15667;52.376;9.708;2023-02-26T02:05:54;5.40;;;1.95;;
28437;SDS011;15667;52.376;9.708;2023-02-26T02:08:24;5.50;;;1.80;;
28437;SDS011;15667;52.376;9.708;2023-02-26T02:10:50;3.60;;;1.80;;
28437;SDS011;15667;52.376;9.708;2023-02-26T02:21:51;7.50;;;2.00;;
28437;SDS011;15667;52.376;9.708;2023-02-26T02:24:26;8.13;;;2.20;;
28437;SDS011;15667;52.376;9.708;2023-02-26T02:32:48;4.25;;;2.08;;
28437;SDS011;15667;52.376;9.708;2023-02-26T02:35:24;5.88;;;1.70;;
28437;SDS011;15667;52.376;9.708;2023-02-26T02:40:28;4.43;;;1.77;;
28437;SDS011;15667;52.376;9.708;2023-02-26T02:43:00;2.40;;;1.50;;
28437;SDS011;15667;52.376;9.708;2023-02-26T02:45:50;5.50;;;1.70;;
28437;SDS011;15667;52.376;9.708;2023-02-26T02:48:34;3.88;;;1.80;;
28437;SDS011;15667;52.376;9.708;2023-02-26T02:53:35;4.28;;;1.65;;
28437;SDS011;15667;52.376;9.708;2023-02-26T02:56:07;5.95;;;1.83;;
28437;SDS011;15667;52.376;9.708;2023-02-26T02:58:54;7.47;;;1.63;;
28437;SDS011;15667;52.376;9.708;2023-02-26T03:01:25;6.07;;;1.75;;
28437;SDS011;15667;52.376;9.708;2023-02-26T03:06:31;8.35;;;1.88;;
28437;SDS011;15667;52.376;9.708;2023-02-26T03:08:59;5.78;;;2.15;;
28437;SDS011;15667;52.376;9.708;2023-02-26T03:11:25;7.32;;;1.63;;
28437;SDS011;15667;52.376;9.708;2023-02-26T03:13:51;8.45;;;1.95;;
28437;SDS011;15667;52.376;9.708;2023-02-26T03:19:17;4.20;;;1.73;;
28437;SDS011;15667;52.376;9.708;2023-02-26T03:22:00;8.95;;;1.67;;
28437;SDS011;15667;52.376;9.708;2023-02-26T03:24:34;4.75;;;1.65;;
28437;SDS011;15667;52.376;9.708;2023-02-26T03:27:30;8.32;;;1.95;;
28437;SDS011;15667;52.376;9.708;2023-02-26T03:30:06;7.45;;;1.83;;
28437;SDS011;15667;52.376;9.708;2023-02-26T03:35:20;5.28;;;1.70;;
28437;SDS011;15667;52.376;9.708;2023-02-26T03:41:56;3.35;;;1.80;;
28437;SDS011;15667;52.376;9.708;2023-02-26T03:47:34;8.98;;;2.30;;
28437;SDS011;15667;52.376;9.708;2023-02-26T03:53:06;5.53;;;1.83;;
28437;SDS011;15667;52.376;9.708;2023-02-26T03:58:55;5.30;;;1.73;;
28437;SDS011;15667;52.376;9.708;2023-02-26T04:01:43;6.13;;;1.85;;
28437;SDS011;15667;52.376;9.708;2023-02-26T04:12:08;3.75;;;1.70;;
28437;SDS011;15667;52.376;9.708;2023-02-26T04:15:31;3.42;;;1.65;;
28437;SDS011;15667;52.376;9.708;2023-02-26T04:18:03;4.85;;;1.52;;
28437;SDS011;15667;52.376;9.708;2023-02-26T04:20:32;2.85;;;1.40;;
28437;SDS011;15667;52.376;9.708;2023-02-26T04:22:58;3.28;;;1.55;;
28437;SDS011;15667;52.376;9.708;2023-02-26T04:25:24;4.38;;;1.98;;
28437;SDS011;15667;52.376;9.708;2023-02-26T04:27:50;7.72;;;1.73;;
28437;SDS011;15667;52.376;9.708;2023-02-26T04:30:19;6.18;;;1.60;;
28437;SDS011;15667;52.376;9.708;2023-02-26T04:32:44;2.05;;;1.45;;
28437;SDS011;15667;52.376;9.708;2023-02-26T04:35:10;3.97;;;1.52;;
28437;SDS011;15667;52.376;9.708;2023-02-26T04:37:41;4.30;;;1.85;;
28437;SDS011;15667;52.376;9.708;2023-02-26T04:40:07;4.53;;;1.83;;
28437;SDS011;15667;52.376;9.708;2023-02-26T04:42:34;4.82;;;1.40;;
28437;SDS011;15667;52.376;9.708;2023-02-26T04:45:00;6.63;;;1.33;;
28437;SDS011;15667;52.376;9.708;2023-02-26T04:47:25;3.58;;;1.58;;
28437;SDS011;15667;52.376;9.708;2023-02-26T04:49:54;4.88;;;1.38;;
28437;SDS011;15667;52.376;9.708;2023-02-26T04:52:26;4.70;;;1.40;;
28437;SDS011;15667;52.376;9.708;2023-02-26T04:55:10;3.13;;;1.85;;
28437;SDS011;15667;52.376;9.708;2023-02-26T04:58:10;2.92;;;1.25;;
28437;SDS011;15667;52.376;9.708;2023-02-26T05:00:52;2.63;;;1.27;;
28437;SDS011;15667;52.376;9.708;2023-02-26T05:03:44;4.30;;;1.50;;
28437;SDS011;15667;52.376;9.708;2023-02-26T05:09:08;6.57;;;1.67;;
28437;SDS011;15667;52.376;9.708;2023-02-26T05:11:34;2.67;;;1.50;;
28437;SDS011;15667;52.376;9.708;2023-02-26T05:14:04;5.90;;;1.30;;
28437;SDS011;15667;52.376;9.708;2023-02-26T05:16:36;5.90;;;1.42;;
28437;SDS011;15667;52.376;9.708;2023-02-26T05:19:05;4.35;;;1.20;;
28437;SDS011;15667;52.376;9.708;2023-02-26T05:21:33;3.15;;;1.20;;
28437;SDS011;15667;52.376;9.708;2023-02-26T05:23:59;5.95;;;1.40;;
28437;SDS011;15667;52.376;9.708;2023-02-26T05:26:31;3.08;;;1.10;;
28437;SDS011;15667;52.376;9.708;2023-02-26T05:29:05;4.22;;;1.60;;
28437;SDS011;15667;52.376;9.708;2023-02-26T05:31:34;4.05;;;1.52;;
28437;SDS011;15667;52.376;9.708;2023-02-26T05:34:07;5.55;;;1.33;;
28437;SDS011;15667;52.376;9.708;2023-02-26T05:36:34;2.55;;;1.20;;
28437;SDS011;15667;52.376;9.708;2023-02-26T05:38:59;4.85;;;1.73;;
28437;SDS011;15667;52.376;9.708;2023-02-26T05:41:25;7.07;;;1.50;;
28437;SDS011;15667;52.376;9.708;2023-02-26T05:43:51;5.03;;;1.60;;
28437;SDS011;15667;52.376;9.708;2023-02-26T05:46:16;2.85;;;1.33;;
28437;SDS011;15667;52.376;9.708;2023-02-26T05:48:42;6.93;;;1.45;;
28437;SDS011;15667;52.376;9.708;2023-02-26T05:51:08;9.02;;;1.40;;
28437;SDS011;15667;52.376;9.708;2023-02-26T05:53:34;1.55;;;1.45;;
28437;SDS011;15667;52.376;9.708;2023-02-26T05:56:00;2.75;;;1.67;;
28437;SDS011;15667;52.376;9.708;2023-02-26T05:58:25;3.90;;;1.40;;
28437;SDS011;15667;52.376;9.708;2023-02-26T06:00:51;5.35;;;1.35;;
28437;SDS011;15667;52.376;9.708;2023-02-26T06:03:17;4.50;;;1.50;;
28437;SDS011;15667;52.376;9.708;2023-02-26T06:05:42;4.70;;;1.30;;
28437;SDS011;15667;52.376;9.708;2023-02-26T06:08:08;3.03;;;1.23;;
28437;SDS011;15667;52.376;9.708;2023-02-26T06:10:36;6.15;;;1.25;;
28437;SDS011;15667;52.376;9.708;2023-02-26T06:13:02;5.65;;;1.10;;
28437;SDS011;15667;52.376;9.708;2023-02-26T06:15:27;4.30;;;1.63;;
28437;SDS011;15667;52.376;9.708;2023-02-26T06:17:53;2.85;;;1.42;;
28437;SDS011;15667;52.376;9.708;2023-02-26T06:20:19;4.38;;;2.33;;
28437;SDS011;15667;52.376;9.708;2023-02-26T06:22:44;3.75;;;1.50;;
28437;SDS011;15667;52.376;9.708;2023-02-26T06:25:10;3.00;;;1.63;;
28437;SDS011;15667;52.376;9.708;2023-02-26T06:27:36;2.92;;;1.30;;
28437;SDS011;15667;52.376;9.708;2023-02-26T06:30:02;3.22;;;1.40;;
28437;SDS011;15667;52.376;9.708;2023-02-26T06:32:28;2.85;;;1.40;;
28437;SDS011;15667;52.376;9.708;2023-02-26T06:34:54;5.00;;;1.40;;
28437;SDS011;15667;52.376;9.708;2023-02-26T06:37:20;2.65;;;1.52;;
28437;SDS011;15667;52.376;9.708;2023-02-26T06:39:45;5.72;;;1.52;;
28437;SDS011;15667;52.376;9.708;2023-02-26T06:45:39;3.90;;;1.40;;
28437;SDS011;15667;52.376;9.708;2023-02-26T06:48:14;3.95;;;1.60;;
28437;SDS011;15667;52.376;9.708;2023-02-26T06:50:39;5.93;;;1.50;;
28437;SDS011;15667;52.376;9.708;2023-02-26T06:53:05;1.95;;;1.30;;
28437;SDS011;15667;52.376;9.708;2023-02-26T06:55:31;4.85;;;1.63;;
28437;SDS011;15667;52.376;9.708;2023-02-26T06:57:57;1.98;;;1.25;;
28437;SDS011;15667;52.376;9.708;2023-02-26T07:00:23;3.67;;;1.33;;
28437;SDS011;15667;52.376;9.708;2023-02-26T07:02:50;4.45;;;1.77;;
28437;SDS011;15667;52.376;9.708;2023-02-26T07:05:16;4.10;;;1.40;;
28437;SDS011;15667;52.376;9.708;2023-02-26T07:07:42;8.75;;;1.63;;
28437;SDS011;15667;52.376;9.708;2023-02-26T07:10:09;6.63;;;1.75;;
28437;SDS011;15667;52.376;9.708;2023-02-26T07:12:35;2.10;;;1.20;;
28437;SDS011;15667;52.376;9.708;2023-02-26T07:15:02;2.80;;;1.80;;
28437;SDS011;15667;52.376;9.708;2023-02-26T07:17:29;3.53;;;1.60;;
28437;SDS011;15667;52.376;9.708;2023-02-26T07:19:55;10.38;;;3.08;;
28437;SDS011;15667;52.376;9.708;2023-02-26T07:22:21;6.22;;;1.88;;
28437;SDS011;15667;52.376;9.708;2023-02-26T07:24:47;4.95;;;1.90;;
28437;SDS011;15667;52.376;9.708;2023-02-26T07:27:13;4.18;;;1.63;;
28437;SDS011;15667;52.376;9.708;2023-02-26T07:29:39;2.97;;;1.98;;
28437;SDS011;15667;52.376;9.708;2023-02-26T07:32:05;15.77;;;6.00;;
28437;SDS011;15667;52.376;9.708;2023-02-26T07:34:31;6.80;;;3.38;;
28437;SDS011;15667;52.376;9.708;2023-02-26T07:36:57;3.63;;;1.50;;
28437;SDS011;15667;52.376;9.708;2023-02-26T07:39:25;4.90;;;1.70;;
28437;SDS011;15667;52.376;9.708;2023-02-26T07:42:00;9.93;;;1.65;;
28437;SDS011;15667;52.376;9.708;2023-02-26T07:44:46;7.28;;;1.60;;
28437;SDS011;15667;52.376;9.708;2023-02-26T07:47:21;4.55;;;1.90;;
28437;SDS011;15667;52.376;9.708;2023-02-26T07:54:14;4.03;;;1.42;;
28437;SDS011;15667;52.376;9.708;2023-02-26T07:56:41;9.68;;;1.90;;
28437;SDS011;15667;52.376;9.708;2023-02-26T07:59:09;4.85;;;1.55;;
28437;SDS011;15667;52.376;9.708;2023-02-26T08:01:35;5.78;;;2.08;;
28437;SDS011;15667;52.376;9.708;2023-02-26T08:04:01;1.77;;;1.40;;
28437;SDS011;15667;52.376;9.708;2023-02-26T08:06:27;2.50;;;1.35;;
28437;SDS011;15667;52.376;9.708;2023-02-26T08:08:53;3.00;;;1.35;;
28437;SDS011;15667;52.376;9.708;2023-02-26T08:11:19;4.15;;;1.40;;
28437;SDS011;15667;52.376;9.708;2023-02-26T08:13:45;5.07;;;1.30;;
28437;SDS011;15667;52.376;9.708;2023-02-26T08:16:10;7.53;;;1.42;;
28437;SDS011;15667;52.376;9.708;2023-02-26T08:18:36;1.58;;;1.45;;
28437;SDS011;15667;52.376;9.708;2023-02-26T08:21:02;8.30;;;1.52;;
28437;SDS011;15667;52.376;9.708;2023-02-26T08:23:28;4.07;;;1.30;;
28437;SDS011;15667;52.376;9.708;2023-02-26T08:26:04;2.67;;;1.35;;
28437;SDS011;15667;52.376;9.708;2023-02-26T08:28:31;2.63;;;1.23;;
28437;SDS011;15667;52.376;9.708;2023-02-26T08:30:58;5.75;;;1.48;;
28437;SDS011;15667;52.376;9.708;2023-02-26T08:33:25;5.35;;;1.10;;
28437;SDS011;15667;52.376;9.708;2023-02-26T08:35:51;3.30;;;1.27;;
28437;SDS011;15667;52.376;9.708;2023-02-26T08:38:17;6.28;;;1.38;;
28437;SDS011;15667;52.376;9.708;2023-02-26T08:40:43;4.68;;;1.45;;
28437;SDS011;15667;52.376;9.708;2023-02-26T08:43:09;3.47;;;1.30;;
28437;SDS011;15667;52.376;9.708;2023-02-26T08:45:36;5.03;;;1.23;;
28437;SDS011;15667;52.376;9.708;2023-02-26T08:48:03;1.30;;;1.05;;
28437;SDS011;15667;52.376;9.708;2023-02-26T08:50:28;5.25;;;1.20;;
28437;SDS011;15667;52.376;9.708;2023-02-26T08:52:54;2.15;;;1.00;;
28437;SDS011;15667;52.376;9.708;2023-02-26T08:55:20;4.80;;;1.00;;
28437;SDS011;15667;52.376;9.708;2023-02-26T08:57:46;3.45;;;1.20;;
28437;SDS011;15667;52.376;9.708;2023-02-26T09:00:12;1.02;;;0.80;;
28437;SDS011;15667;52.376;9.708;2023-02-26T09:02:43;2.85;;;1.10;;
28437;SDS011;15667;52.376;9.708;2023-02-26T09:05:12;7.60;;;1.80;;
28437;SDS011;15667;52.376;9.708;2023-02-26T09:07:39;5.13;;;1.70;;
28437;SDS011;15667;52.376;9.708;2023-02-26T09:10:05;1.58;;;0.90;;
28437;SDS011;15667;52.376;9.708;2023-02-26T09:12:33;7.80;;;1.15;;
28437;SDS011;15667;52.376;9.708;2023-02-26T09:15:00;7.45;;;1.05;;
28437;SDS011;15667;52.376;9.708;2023-02-26T09:17:31;3.10;;;0.98;;
28437;SDS011;15667;52.376;9.708;2023-02-26T09:19:57;3.78;;;1.00;;
28437;SDS011;15667;52.376;9.708;2023-02-26T09:22:22;2.13;;;0.73;;
28437;SDS011;15667;52.376;9.708;2023-02-26T09:24:48;3.50;;;0.98;;
28437;SDS011;15667;52.376;9.708;2023-02-26T09:27:14;3.65;;;0.80;;
28437;SDS011;15667;52.376;9.708;2023-02-26T09:29:42;2.08;;;0.77;;
28437;SDS011;15667;52.376;9.708;2023-02-26T09:32:08;1.77;;;0.63;;
28437;SDS011;15667;52.376;9.708;2023-02-26T09:34:36;1.13;;;0.73;;
28437;SDS011;15667;52.376;9.708;2023-02-26T09:37:03;1.10;;;0.70;;
28437;SDS011;15667;52.376;9.708;2023-02-26T09:39:30;2.03;;;0.93;;
28437;SDS011;15667;52.376;9.708;2023-02-26T09:41:57;1.92;;;0.60;;
28437;SDS011;15667;52.376;9.708;2023-02-26T09:44:32;5.13;;;0.82;;
28437;SDS011;15667;52.376;9.708;2023-02-26T09:49:43;1.33;;;0.70;;
28437;SDS011;15667;52.376;9.708;2023-02-26T09:58:10;1.45;;;0.60;;
28437;SDS011;15667;52.376;9.708;2023-02-26T10:03:24;0.95;;;0.70;;
28437;SDS011;15667;52.376;9.708;2023-02-26T10:06:07;3.63;;;0.57;;
28437;SDS011;15667;52.376;9.708;2023-02-26T10:09:23;3.63;;;0.80;;
28437;SDS011;15667;52.376;9.708;2023-02-26T10:14:31;3.13;;;0.95;;
28437;SDS011;15667;52.376;9.708;2023-02-26T10:16:59;2.45;;;1.05;;
28437;SDS011;15667;52.376;9.708;2023-02-26T10:19:47;3.33;;;1.30;;
28437;SDS011;15667;52.376;9.708;2023-02-26T10:22:34;3.83;;;1.05;;
28437;SDS011;15667;52.376;9.708;2023-02-26T10:30:33;3.42;;;1.30;;
28437;SDS011;15667;52.376;9.708;2023-02-26T10:33:20;3.30;;;1.00;;
28437;SDS011;15667;52.376;9.708;2023-02-26T10:35:49;5.55;;;1.15;;
28437;SDS011;15667;52.376;9.708;2023-02-26T10:38:24;6.65;;;0.98;;
28437;SDS011;15667;52.376;9.708;2023-02-26T10:40:57;2.67;;;0.93;;
28437;SDS011;15667;52.376;9.708;2023-02-26T10:49:15;3.03;;;1.10;;
28437;SDS011;15667;52.376;9.708;2023-02-26T10:51:52;1.63;;;0.90;;
28437;SDS011;15667;52.376;9.708;2023-02-26T10:54:35;1.98;;;0.95;;
28437;SDS011;15667;52.376;9.708;2023-02-26T10:57:08;4.20;;;1.17;;
28437;SDS011;15667;52.376;9.708;2023-02-26T10:59:49;1.10;;;0.75;;
28437;SDS011;15667;52.376;9.708;2023-02-26T11:05:13;1.77;;;0.88;;
28437;SDS011;15667;52.376;9.708;2023-02-26T11:07:43;3.75;;;0.85;;
28437;SDS011;15667;52.376;9.708;2023-02-26T11:10:15;2.10;;;0.90;;
28437;SDS011;15667;52.376;9.708;2023-02-26T11:12:44;3.05;;;0.82;;
28437;SDS011;15667;52.376;9.708;2023-02-26T11:15:13;4.40;;;1.05;;
28437;SDS011;15667;52.376;9.708;2023-02-26T11:17:47;1.88;;;0.63;;
28437;SDS011;15667;52.376;9.708;2023-02-26T11:23:01;1.00;;;0.70;;
28437;SDS011;15667;52.376;9.708;2023-02-26T11:25:29;1.55;;;0.70;;
28437;SDS011;15667;52.376;9.708;2023-02-26T11:27:59;1.85;;;0.70;;
28437;SDS011;15667;52.376;9.708;2023-02-26T11:30:31;0.82;;;0.70;;
28437;SDS011;15667;52.376;9.708;2023-02-26T11:33:19;0.90;;;0.50;;
28437;SDS011;15667;52.376;9.708;2023-02-26T11:35:47;0.70;;;0.60;;
28437;SDS011;15667;52.376;9.708;2023-02-26T11:38:15;1.05;;;0.75;;
28437;SDS011;15667;52.376;9.708;2023-02-26T11:40:45;3.13;;;0.80;;
28437;SDS011;15667;52.376;9.708;2023-02-26T11:43:16;1.55;;;0.75;;
28437;SDS011;15667;52.376;9.708;2023-02-26T11:45:44;1.27;;;0.80;;
28437;SDS011;15667;52.376;9.708;2023-02-26T11:48:15;1.88;;;0.90;;
28437;SDS011;15667;52.376;9.708;2023-02-26T11:50:48;26.63;;;8.52;;
28437;SDS011;15667;52.376;9.708;2023-02-26T11:56:08;5.33;;;1.00;;
28437;SDS011;15667;52.376;9.708;2023-02-26T11:58:37;4.40;;;1.02;;
28437;SDS011;15667;52.376;9.708;2023-02-26T12:01:05;1.63;;;0.90;;
28437;SDS011;15667;52.376;9.708;2023-02-26T12:03:33;5.35;;;1.30;;
28437;SDS011;15667;52.376;9.708;2023-02-26T12:06:05;1.90;;;0.80;;
28437;SDS011;15667;52.376;9.708;2023-02-26T12:08:37;0.85;;;0.80;;
28437;SDS011;15667;52.376;9.708;2023-02-26T12:16:49;1.67;;;0.60;;
28437;SDS011;15667;52.376;9.708;2023-02-26T12:30:45;3.08;;;0.80;;
28437;SDS011;15667;52.376;9.708;2023-02-26T12:33:49;1.15;;;0.70;;
28437;SDS011;15667;52.376;9.708;2023-02-26T12:47:29;1.58;;;0.60;;
28437;SDS011;15667;52.376;9.708;2023-02-26T12:53:14;1.77;;;0.70;;
28437;SDS011;15667;52.376;9.708;2023-02-26T12:59:00;1.10;;;0.60;;
28437;SDS011;15667;52.376;9.708;2023-02-26T13:04:52;2.00;;;0.80;;
28437;SDS011;15667;52.376;9.708;2023-02-26T13:12:34;3.13;;;0.70;;
28437;SDS011;15667;52.376;9.708;2023-02-26T13:20:53;1.05;;;0.80;;
28437;SDS011;15667;52.376;9.708;2023-02-26T13:23:24;0.95;;;0.80;;
28437;SDS011;15667;52.376;9.708;2023-02-26T13:26:13;1.17;;;0.80;;
28437;SDS011;15667;52.376;9.708;2023-02-26T13:28:41;2.08;;;0.73;;
28437;SDS011;15667;52.376;9.708;2023-02-26T13:31:14;5.63;;;0.80;;
28437;SDS011;15667;52.376;9.708;2023-02-26T13:34:00;0.60;;;0.60;;
28437;SDS011;15667;52.376;9.708;2023-02-26T13:36:30;1.20;;;0.95;;
28437;SDS011;15667;52.376;9.708;2023-02-26T13:39:04;2.58;;;1.00;;
28437;SDS011;15667;52.376;9.708;2023-02-26T13:52:53;0.90;;;0.45;;
28437;SDS011;15667;52.376;9.708;2023-02-26T13:55:42;1.75;;;0.40;;
28437;SDS011;15667;52.376;9.708;2023-02-26T13:58:34;0.50;;;0.40;;
28437;SDS011;15667;52.376;9.708;2023-02-26T14:01:15;0.38;;;0.30;;
28437;SDS011;15667;52.376;9.708;2023-02-26T14:06:22;0.80;;;0.40;;
28437;SDS011;15667;52.376;9.708;2023-02-26T14:08:52;3.55;;;0.40;;
28437;SDS011;15667;52.376;9.708;2023-02-26T14:14:05;0.47;;;0.30;;
28437;SDS011;15667;52.376;9.708;2023-02-26T14:16:41;2.50;;;0.40;;
28437;SDS011;15667;52.376;9.708;2023-02-26T14:24:13;0.90;;;0.50;;
28437;SDS011;15667;52.376;9.708;2023-02-26T14:26:47;0.88;;;0.40;;
28437;SDS011;15667;52.376;9.708;2023-02-26T14:29:19;0.85;;;0.40;;
28437;SDS011;15667;52.376;9.708;2023-02-26T14:32:03;3.03;;;0.70;;
28437;SDS011;15667;52.376;9.708;2023-02-26T14:34:47;0.50;;;0.50;;
28437;SDS011;15667;52.376;9.708;2023-02-26T14:37:17;1.85;;;0.50;;
28437;SDS011;15667;52.376;9.708;2023-02-26T14:39:47;1.42;;;0.70;;
28437;SDS011;15667;52.376;9.708;2023-02-26T21:28:16;5.10;;;2.00;;
28437;SDS011;15667;52.376;9.708;2023-02-26T21:30:41;6.95;;;2.72;;
28437;SDS011;15667;52.376;9.708;2023-02-26T21:35:49;10.15;;;2.80;;
28437;SDS011;15667;52.376;9.708;2023-02-26T21:38:16;9.45;;;2.90;;
28437;SDS011;15667;52.376;9.708;2023-02-26T21:40:45;4.18;;;2.55;;
28437;SDS011;15667;52.376;9.708;2023-02-26T21:43:12;6.65;;;2.58;;
28437;SDS011;15667;52.376;9.708;2023-02-26T21:45:38;10.02;;;3.70;;
28437;SDS011;15667;52.376;9.708;2023-02-26T21:48:05;6.55;;;2.67;;
28437;SDS011;15667;52.376;9.708;2023-02-26T21:50:32;8.90;;;2.70;;
28437;SDS011;15667;52.376;9.708;2023-02-26T21:52:58;7.57;;;2.58;;
28437;SDS011;15667;52.376;9.708;2023-02-26T21:55:24;5.82;;;2.38;;
28437;SDS011;15667;52.376;9.708;2023-02-26T21:57:50;8.88;;;2.80;;
28437;SDS011;15667;52.376;9.708;2023-02-26T22:00:16;10.55;;;3.20;;
28437;SDS011;15667;52.376;9.708;2023-02-26T22:02:43;7.55;;;2.58;;
28437;SDS011;15667;52.376;9.708;2023-02-26T22:05:08;6.55;;;2.80;;
28437;SDS011;15667;52.376;9.708;2023-02-26T22:07:35;8.57;;;3.20;;
28437;SDS011;15667;52.376;9.708;2023-02-26T22:10:02;9.25;;;3.45;;
28437;SDS011;15667;52.376;9.708;2023-02-26T22:12:30;9.15;;;4.15;;
28437;SDS011;15667;52.376;9.708;2023-02-26T22:14:55;11.70;;;5.13;;
28437;SDS011;15667;52.376;9.708;2023-02-26T22:17:21;10.00;;;4.35;;
28437;SDS011;15667;52.376;9.708;2023-02-26T22:19:47;11.50;;;4.97;;
28437;SDS011;15667;52.376;9.708;2023-02-26T22:22:13;10.85;;;7.00;;
28437;SDS011;15667;52.376;9.708;2023-02-26T22:24:40;13.45;;;6.53;;
28437;SDS011;15667;52.376;9.708;2023-02-26T22:27:07;22.85;;;11.70;;
28437;SDS011;15667;52.376;9.708;2023-02-26T22:29:32;19.38;;;11.73;;
28437;SDS011;15667;52.376;9.708;2023-02-26T22:31:58;23.80;;;11.85;;
28437;SDS011;15667;52.376;9.708;2023-02-26T22:34:24;19.55;;;10.40;;
28437;SDS011;15667;52.376;9.708;2023-02-26T22:36:52;17.42;;;8.23;;
28437;SDS011;15667;52.376;9.708;2023-02-26T22:39:19;13.27;;;7.22;;
28437;SDS011;15667;52.376;9.708;2023-02-26T22:41:45;10.65;;;6.18;;
28437;SDS011;15667;52.376;9.708;2023-02-26T22:44:11;10.15;;;6.03;;
28437;SDS011;15667;52.376;9.708;2023-02-26T22:46:37;9.73;;;5.68;;
28437;SDS011;15667;52.376;9.708;2023-02-26T22:49:03;12.90;;;6.28;;
28437;SDS011;15667;52.376;9.708;2023-02-26T22:51:29;13.38;;;6.35;;
28437;SDS011;15667;52.376;9.708;2023-02-26T22:53:57;14.15;;;6.47;;
28437;SDS011;15667;52.376;9.708;2023-02-26T22:56:24;19.85;;;6.20;;
28437;SDS011;15667;52.376;9.708;2023-02-26T22:58:50;12.65;;;5.75;;
28437;SDS011;15667;52.376;9.708;2023-02-26T23:01:15;11.20;;;5.70;;
28437;SDS011;15667;52.376;9.708;2023-02-26T23:03:41;12.40;;;5.13;;
28437;SDS011;15667;52.376;9.708;2023-02-26T23:06:07;10.25;;;4.80;;
28437;SDS011;15667;52.376;9.708;2023-02-26T23:08:33;11.60;;;4.00;;
28437;SDS011;15667;52.376;9.708;2023-02-26T23:11:00;7.43;;;3.95;;
28437;SDS011;15667;52.376;9.708;2023-02-26T23:13:27;7.70;;;4.10;;
28437;SDS011;15667;52.376;9.708;2023-02-26T23:15:55;9.07;;;4.00;;
28437;SDS011;15667;52.376;9.708;2023-02-26T23:18:21;7.00;;;3.58;;
28437;SDS011;15667;52.376;9.708;2023-02-26T23:20:47;6.72;;;3.67;;
28437;SDS011;15667;52.376;9.708;2023-02-26T23:23:14;12.00;;;4.25;;
28437;SDS011;15667;52.376;9.708;2023-02-26T23:25:40;6.32;;;3.58;;
28437;SDS011;15667;52.376;9.708;2023-02-26T23:28:07;10.07;;;3.90;;
28437;SDS011;15667;52.376;9.708;2023-02-26T23:30:33;9.10;;;4.32;;
28437;SDS011;15667;52.376;9.708;2023-02-26T23:32:59;7.88;;;4.32;;
28437;SDS011;15667;52.376;9.708;2023-02-26T23:35:25;13.75;;;4.20;;
28437;SDS011;15667;52.376;9.708;2023-02-26T23:37:50;10.57;;;4.50;;
28437;SDS011;15667;52.376;9.708;2023-02-26T23:40:16;11.15;;;5.25;;
28437;SDS011;15667;52.376;9.708;2023-02-26T23:42:42;10.57;;;4.82;;
28437;SDS011;15667;52.376;9.708;2023-02-26T23:45:08;11.05;;;4.90;;
28437;SDS011;15667;52.376;9.708;2023-02-26T23:47:35;13.15;;;4.55;;
28437;SDS011;15667;52.376;9.708;2023-02-26T23:50:01;10.88;;;4.70;;
28437;SDS011;15667;52.376;9.708;2023-02-26T23:52:27;12.98;;;4.70;;
28437;SDS011;15667;52.376;9.708;2023-02-26T23:54:52;6.47;;;3.72;;
28437;SDS011;15667;52.376;9.708;2023-02-26T23:57:18;6.88;;;3.88;;
28437;SDS011;15667;52.376;9.708;2023-02-26T23:59:44;9.38;;;4.00;;
